Time;durP1;ratioP1;P1;durP2;ratioP2;P2;SDS_P1;SDS_P2;PMS_P1;PMS_P2;Temp;Humidity;BMP_temperature;BMP_pressure;BME280_temperature;BME280_humidity;BME280_pressure;Samples;Min_cycle;Max_cycle;Signal;HPM_P1;HPM_P2
2022/12/14 00:02:14;;;;;;;13.25;4.65;;;;;;;-1.44;84.13;100054.47;5010879;28;20034;-65
2022/12/14 00:04:39;;;;;;;7.35;4.25;;;;;;;-1.56;83.92;100054.91;5007769;28;20037;-65
2022/12/14 00:07:05;;;;;;;9.25;4.07;;;;;;;-1.54;84.13;100046.69;5009673;28;20122;-66
2022/12/14 00:09:30;;;;;;;11.93;3.83;;;;;;;-1.49;83.85;100060.59;4999474;28;20515;-66
2022/12/14 00:11:55;;;;;;;5.88;3.80;;;;;;;-1.43;83.90;100054.16;5009245;28;20033;-65
2022/12/14 00:14:21;;;;;;;5.93;4.25;;;;;;;-1.48;84.00;100050.81;4997978;28;20033;-65
2022/12/14 00:16:46;;;;;;;7.93;5.72;;;;;;;-1.59;83.56;100057.34;4990863;28;20026;-66
2022/12/14 00:19:12;;;;;;;9.40;3.92;;;;;;;-1.56;83.68;100047.00;4999788;28;20041;-67
2022/12/14 00:21:41;;;;;;;9.95;3.35;;;;;;;-1.44;83.79;100046.53;5005201;28;20057;-66
2022/12/14 00:24:06;;;;;;;6.35;3.35;;;;;;;-1.60;84.19;100055.78;5001135;28;20101;-66
2022/12/14 00:26:32;;;;;;;6.57;3.58;;;;;;;-1.61;84.30;100051.59;5009047;28;20133;-66
2022/12/14 00:28:59;;;;;;;11.07;5.80;;;;;;;-1.62;84.63;100045.50;5011915;28;20060;-66
2022/12/14 00:31:25;;;;;;;9.05;3.78;;;;;;;-1.45;83.98;100050.25;5011539;28;20030;-65
2022/12/14 00:33:51;;;;;;;5.65;3.92;;;;;;;-1.48;84.15;100040.28;5013711;28;20428;-65
2022/12/14 00:36:17;;;;;;;3.50;2.70;;;;;;;-1.45;83.69;100042.34;5009558;28;20045;-66
2022/12/14 00:38:43;;;;;;;8.20;3.90;;;;;;;-1.43;83.64;100034.94;5001853;28;20034;-66
2022/12/14 00:41:09;;;;;;;5.15;2.53;;;;;;;-1.54;83.53;100041.44;5008377;28;20414;-66
2022/12/14 00:43:34;;;;;;;4.35;3.30;;;;;;;-1.64;83.30;100036.31;5003670;28;20033;-67
2022/12/14 00:46:00;;;;;;;7.53;3.60;;;;;;;-1.64;84.12;100037.09;4998116;28;20398;-66
2022/12/14 00:48:26;;;;;;;8.98;4.32;;;;;;;-1.68;83.74;100030.06;5005875;28;20040;-66
2022/12/14 00:50:53;;;;;;;10.30;4.05;;;;;;;-1.66;83.71;100028.69;5020509;28;20302;-65
2022/12/14 00:53:19;;;;;;;7.75;3.90;;;;;;;-1.60;83.56;100021.47;5015159;28;20026;-66
2022/12/14 00:55:46;;;;;;;9.05;4.43;;;;;;;-1.75;84.00;100025.16;5012105;28;20433;-66
2022/12/14 00:58:13;;;;;;;22.05;7.72;;;;;;;-1.71;84.06;100020.88;5013748;28;20083;-66
2022/12/14 01:00:39;;;;;;;9.75;4.05;;;;;;;-1.89;84.36;100016.41;5009637;28;20095;-65
2022/12/14 01:03:05;;;;;;;7.50;3.95;;;;;;;-1.64;83.13;100018.63;5008035;28;20039;-66
2022/12/14 01:05:33;;;;;;;9.18;5.28;;;;;;;-2.00;84.01;100023.72;5000011;28;20045;-65
2022/12/14 01:07:59;;;;;;;8.38;4.00;;;;;;;-1.90;84.69;100023.53;5004772;28;20406;-67
2022/12/14 01:10:25;;;;;;;6.15;4.05;;;;;;;-2.03;85.01;100023.47;5007074;28;20040;-66
2022/12/14 01:12:50;;;;;;;10.13;4.82;;;;;;;-1.95;85.10;100021.00;4999611;28;20042;-66
2022/12/14 01:15:16;;;;;;;7.68;4.60;;;;;;;-1.89;85.04;100013.78;4996014;28;20034;-66
2022/12/14 01:17:41;;;;;;;6.30;3.63;;;;;;;-1.84;84.40;100011.84;5009127;28;20042;-66
2022/12/14 01:20:07;;;;;;;4.15;3.13;;;;;;;-1.82;84.35;100017.59;4997637;28;20117;-66
2022/12/14 01:22:53;;;;;;;13.02;4.78;;;;;;;-1.75;84.06;100021.72;5003585;28;20027;-66
2022/12/14 01:25:19;;;;;;;5.95;3.95;;;;;;;-1.93;84.41;100016.22;4948208;28;20071;-66
2022/12/14 01:27:45;;;;;;;4.43;3.47;;;;;;;-1.98;84.46;100018.94;4947091;28;20149;-65
2022/12/14 01:30:11;;;;;;;7.35;4.30;;;;;;;-1.90;84.47;100012.22;4950531;28;20736;-66
2022/12/14 01:32:36;;;;;;;9.52;3.67;;;;;;;-1.87;84.47;100015.06;4950662;28;20149;-67
2022/12/14 01:35:02;;;;;;;9.02;4.55;;;;;;;-1.89;83.73;100011.94;4945829;28;20509;-67
2022/12/14 01:37:27;;;;;;;9.10;4.05;;;;;;;-1.93;84.18;100005.66;4949516;28;20046;-67
2022/12/14 01:39:53;;;;;;;6.20;3.58;;;;;;;-2.00;84.38;100007.91;4950137;28;20043;-66
2022/12/14 01:42:18;;;;;;;6.05;4.57;;;;;;;-2.00;84.30;100002.63;4946974;28;20043;-67
2022/12/14 01:44:44;;;;;;;6.68;4.53;;;;;;;-1.98;84.17;100004.97;4949685;29;20142;-66
2022/12/14 01:47:12;;;;;;;3.58;3.13;;;;;;;-2.04;83.93;99999.00;4933818;29;20034;-66
2022/12/14 01:49:37;;;;;;;7.10;4.00;;;;;;;-2.04;84.25;100003.47;4942667;28;20043;-66
2022/12/14 01:52:06;;;;;;;7.15;3.42;;;;;;;-2.07;84.30;99996.16;4932273;29;20515;-66
2022/12/14 01:54:36;;;;;;;7.22;3.85;;;;;;;-1.85;83.74;99993.66;4934840;29;20053;-66
2022/12/14 01:57:02;;;;;;;14.27;4.95;;;;;;;-2.02;83.94;99990.78;4950447;28;20570;-66
2022/12/14 01:59:33;;;;;;;11.73;5.18;;;;;;;-2.20;84.48;99991.59;4949243;29;20027;-67
2022/12/14 02:02:01;;;;;;;;;;;;;;;-2.20;84.72;99983.66;4966369;28;20509;-65
2022/12/14 02:04:27;;;;;;;5.70;3.67;;;;;;;-2.16;84.99;99977.56;4990967;28;19910;-66
2022/12/14 02:06:53;;;;;;;9.02;2.85;;;;;;;-2.28;85.40;99981.69;5001768;28;20605;-66
2022/12/14 02:09:25;;;;;;;7.75;4.05;;;;;;;-2.78;86.70;99985.81;5000829;28;20033;-66
2022/12/14 02:11:56;;;;;;;7.47;3.17;;;;;;;-2.50;86.53;99981.50;4993520;28;20040;-66
2022/12/14 02:14:22;;;;;;;3.35;1.85;;;;;;;-2.26;85.87;99976.91;5003100;28;20046;-66
2022/12/14 02:16:53;;;;;;;6.78;3.65;;;;;;;-2.36;85.72;99974.44;4994289;28;20044;-66
2022/12/14 02:19:19;;;;;;;8.88;4.43;;;;;;;-2.29;85.44;99975.66;4990969;28;20074;-65
2022/12/14 02:21:54;;;;;;;4.30;2.83;;;;;;;-2.14;84.96;99979.91;4999051;28;20061;-66
2022/12/14 02:24:46;;;;;;;11.63;5.00;;;;;;;-2.25;85.32;99973.22;5004944;28;20048;-65
2022/12/14 02:27:44;;;;;;;6.53;3.92;;;;;;;-2.21;85.34;99968.94;5001659;28;20033;-66
2022/12/14 02:30:20;;;;;;;9.15;3.55;;;;;;;-2.05;84.35;99978.16;5010383;28;20053;-65
2022/12/14 02:33:01;;;;;;;11.20;5.03;;;;;;;-2.23;84.96;99971.88;5011378;28;20042;-66
2022/12/14 02:35:50;;;;;;;5.68;4.03;;;;;;;-2.17;85.22;99975.22;5003597;28;20037;-65
2022/12/14 02:38:24;;;;;;;10.15;4.03;;;;;;;-2.21;84.30;99972.38;5003673;28;20506;-66
2022/12/14 02:41:11;;;;;;;10.02;3.47;;;;;;;-2.48;85.80;99972.25;5010727;28;20036;-65
2022/12/14 02:43:36;;;;;;;11.40;4.57;;;;;;;-2.59;85.68;99972.66;5003915;28;20045;-66
2022/12/14 02:46:14;;;;;;;5.60;3.67;;;;;;;-2.48;86.05;99966.19;5011062;28;20041;-65
2022/12/14 02:48:48;;;;;;;20.48;4.63;;;;;;;-2.50;86.55;99965.69;5018708;28;20029;-65
2022/12/14 02:51:14;;;;;;;6.65;3.60;;;;;;;-2.45;85.89;99963.75;5010563;28;20726;-66
2022/12/14 02:53:53;;;;;;;6.00;4.07;;;;;;;-2.46;85.62;99956.16;5010423;28;20057;-66
2022/12/14 02:56:30;;;;;;;19.38;5.22;;;;;;;-2.38;85.80;99940.44;5007761;28;20026;-65
2022/12/14 02:58:56;;;;;;;4.82;2.97;;;;;;;-2.30;85.80;99944.28;5009679;28;20406;-65
2022/12/14 03:01:26;;;;;;;13.30;3.70;;;;;;;-2.21;85.55;99953.13;5018019;28;20030;-65
2022/12/14 03:03:51;;;;;;;6.07;4.05;;;;;;;-2.38;85.09;99940.44;5006220;28;20099;-65
2022/12/14 03:06:26;;;;;;;3.67;3.38;;;;;;;-2.33;85.53;99935.13;5015074;28;20045;-65
2022/12/14 03:09:00;;;;;;;5.80;2.75;;;;;;;-2.23;84.37;99934.97;5006018;28;20465;-66
2022/12/14 03:11:40;;;;;;;11.52;5.30;;;;;;;-2.28;84.39;99927.13;5008708;28;20037;-66
2022/12/14 03:14:16;;;;;;;14.73;4.60;;;;;;;-2.46;85.09;99925.31;5009790;28;20052;-65
2022/12/14 03:16:49;;;;;;;5.95;3.30;;;;;;;-2.33;84.83;99927.22;5010175;28;20414;-65
2022/12/14 03:19:37;;;;;;;3.20;2.92;;;;;;;-2.15;84.54;99917.72;5011227;28;20422;-66
2022/12/14 03:22:29;;;;;;;11.38;3.55;;;;;;;-2.23;84.11;99919.16;5007797;28;20077;-66
2022/12/14 03:25:03;;;;;;;4.95;3.33;;;;;;;-2.22;84.04;99917.28;5013068;28;20052;-65
2022/12/14 03:27:32;;;;;;;7.63;3.83;;;;;;;-2.60;84.75;99918.41;5009859;28;20046;-66
2022/12/14 03:30:03;;;;;;;5.28;3.08;;;;;;;-2.49;84.98;99915.34;5023053;28;20449;-65
2022/12/14 03:32:32;;;;;;;9.43;5.50;;;;;;;-2.51;85.01;99916.69;5010003;28;20026;-65
2022/12/14 03:35:05;;;;;;;4.72;3.35;;;;;;;-2.56;85.25;99908.88;5011383;28;20454;-65
2022/12/14 03:37:41;;;;;;;7.50;4.03;;;;;;;-2.56;85.49;99899.13;5021997;28;20037;-65
2022/12/14 03:40:09;;;;;;;7.72;4.28;;;;;;;-2.49;85.07;99898.72;5009716;28;20266;-65
2022/12/14 03:43:13;;;;;;;7.38;3.47;;;;;;;-2.45;84.87;99900.53;5010986;28;20432;-65
2022/12/14 03:46:08;;;;;;;5.50;3.83;;;;;;;-2.38;85.01;99890.38;5014917;28;20037;-66
2022/12/14 03:48:42;;;;;;;10.35;3.53;;;;;;;-2.22;84.23;99894.34;4997885;28;20060;-66
2022/12/14 03:51:35;;;;;;;6.65;4.03;;;;;;;-2.18;83.97;99890.06;5007204;28;20027;-65
2022/12/14 03:54:20;;;;;;;14.57;4.53;;;;;;;-2.44;84.20;99882.88;5013731;28;20081;-66
2022/12/14 03:57:29;;;;;;;4.80;2.33;;;;;;;-2.38;84.23;99882.47;5012823;28;20113;-65
2022/12/14 04:00:04;;;;;;;13.15;5.65;;;;;;;-2.61;84.59;99879.97;4988901;28;20252;-65
2022/12/14 04:02:50;;;;;;;5.10;3.28;;;;;;;-2.57;85.13;99876.47;5015242;28;20034;-66
2022/12/14 04:05:37;;;;;;;3.90;3.47;;;;;;;-2.54;84.69;99880.38;5006449;28;20128;-66
2022/12/14 04:08:14;;;;;;;6.78;3.65;;;;;;;-2.54;84.71;99877.75;5019901;28;20110;-66
2022/12/14 04:19:19;;;;;;;4.80;3.38;;;;;;;-2.65;84.83;99873.72;5008143;28;20132;-64
2022/12/14 04:21:49;;;;;;;5.55;2.80;;;;;;;-2.51;84.24;99872.69;5009450;28;20037;-65
2022/12/14 04:27:20;;;;;;;16.58;3.67;;;;;;;-2.69;84.78;99857.69;5008839;28;20034;-64
2022/12/14 04:29:59;;;;;;;7.75;3.80;;;;;;;-2.71;85.12;99859.06;5013429;28;20125;-65
2022/12/14 04:32:34;;;;;;;6.63;3.40;;;;;;;-2.72;84.53;99860.91;4999403;28;20031;-65
2022/12/14 04:35:23;;;;;;;2.90;2.70;;;;;;;-2.63;85.11;99856.53;5003193;28;20470;-65
2022/12/14 04:37:53;;;;;;;4.93;3.90;;;;;;;-2.56;84.60;99856.97;4916532;29;20052;-65
2022/12/14 04:40:24;;;;;;;3.13;2.25;;;;;;;-2.72;84.54;99858.25;4917762;29;20047;-66
2022/12/14 04:42:58;;;;;;;7.72;4.63;;;;;;;-2.78;85.02;99859.41;4932023;29;20055;-66
2022/12/14 04:45:31;;;;;;;10.25;4.25;;;;;;;-2.73;85.13;99861.97;4938790;29;20047;-66
2022/12/14 04:48:09;;;;;;;6.53;3.20;;;;;;;-2.66;84.96;99862.38;4939028;29;20050;-65
2022/12/14 04:50:41;;;;;;;5.45;3.85;;;;;;;-2.63;84.67;99856.53;4929954;29;20043;-66
2022/12/14 04:53:14;;;;;;;4.72;3.13;;;;;;;-2.50;83.55;99855.81;4916740;29;20039;-65
2022/12/14 04:55:48;;;;;;;7.47;5.25;;;;;;;-2.54;83.36;99849.56;4932113;29;20417;-65
2022/12/14 04:58:25;;;;;;;3.70;3.03;;;;;;;-2.60;83.85;99853.34;4938843;29;20434;-66
2022/12/14 05:01:08;;;;;;;7.32;2.88;;;;;;;-2.60;83.74;99850.72;4938438;29;20485;-66
2022/12/14 05:03:37;;;;;;;5.35;2.70;;;;;;;-2.64;83.66;99844.44;4937031;29;20059;-66
2022/12/14 05:06:26;;;;;;;14.27;4.05;;;;;;;-2.76;83.96;99847.53;4931372;29;20139;-66
2022/12/14 05:09:19;;;;;;;5.53;3.85;;;;;;;-2.73;83.95;99840.13;4930756;29;20417;-66
2022/12/14 05:12:09;;;;;;;9.80;5.30;;;;;;;-2.85;83.75;99836.09;4930799;29;20031;-66
2022/12/14 05:14:49;;;;;;;6.68;3.83;;;;;;;-2.88;84.04;99838.47;4959948;28;20100;-66
2022/12/14 05:17:16;;;;;;;7.72;3.20;;;;;;;-2.74;83.78;99834.06;5007396;28;20077;-66
2022/12/14 05:19:45;;;;;;;5.85;3.53;;;;;;;-2.84;83.95;99837.63;5018270;28;20048;-65
2022/12/14 05:22:10;;;;;;;4.85;2.92;;;;;;;-2.82;83.93;99837.34;5003966;28;20026;-65
2022/12/14 05:24:36;;;;;;;5.10;2.95;;;;;;;-2.87;84.15;99835.59;5008038;28;20038;-65
2022/12/14 05:27:01;;;;;;;8.05;2.97;;;;;;;-2.84;83.97;99831.59;5006868;28;20521;-66
2022/12/14 05:29:27;;;;;;;5.72;3.72;;;;;;;-2.82;83.96;99832.06;5010853;28;20028;-66
2022/12/14 05:31:52;;;;;;;18.15;3.40;;;;;;;-2.97;83.41;99829.69;5009895;28;20042;-66
2022/12/14 05:34:18;;;;;;;9.90;3.45;;;;;;;-3.00;84.03;99836.28;5001861;28;20036;-66
2022/12/14 05:36:44;;;;;;;10.48;4.05;;;;;;;-3.01;84.33;99829.47;5012303;28;20074;-65
2022/12/14 05:39:09;;;;;;;7.18;4.03;;;;;;;-3.05;84.08;99833.75;5013410;28;20304;-64
2022/12/14 05:41:34;;;;;;;7.28;4.75;;;;;;;-3.23;84.39;99833.75;5013423;28;20458;-66
2022/12/14 05:44:03;;;;;;;19.17;4.22;;;;;;;-3.20;84.67;99828.69;5006811;28;20037;-64
2022/12/14 05:46:28;;;;;;;3.65;2.83;;;;;;;-3.11;84.86;99832.25;5003853;28;20087;-66
2022/12/14 05:48:54;;;;;;;6.50;4.45;;;;;;;-3.09;84.58;99829.31;5011758;28;20033;-66
2022/12/14 05:51:19;;;;;;;12.07;3.90;;;;;;;-2.95;84.46;99824.91;4993994;28;20034;-66
2022/12/14 05:53:45;;;;;;;10.13;3.63;;;;;;;-2.88;84.08;99823.47;5023623;28;20033;-65
2022/12/14 05:56:11;;;;;;;7.40;3.35;;;;;;;-2.88;83.53;99818.22;5020513;28;20048;-66
2022/12/14 05:58:37;;;;;;;8.40;3.83;;;;;;;-3.10;83.40;99815.41;5011879;28;20717;-65
2022/12/14 06:01:06;;;;;;;4.03;3.55;;;;;;;-3.13;83.90;99812.53;5008060;28;20116;-65
2022/12/14 06:03:31;;;;;;;6.28;3.60;;;;;;;-3.10;83.75;99804.88;5009822;28;20379;-65
2022/12/14 06:06:05;;;;;;;6.22;3.75;;;;;;;-3.05;83.90;99806.63;5005313;28;20021;-65
2022/12/14 06:08:33;;;;;;;10.27;4.45;;;;;;;-3.09;83.59;99805.63;5010920;28;20501;-65
2022/12/14 06:11:07;;;;;;;4.25;3.55;;;;;;;-3.14;83.78;99811.78;5007457;28;20042;-66
2022/12/14 06:13:36;;;;;;;6.00;4.07;;;;;;;-3.09;83.63;99800.38;5014377;28;20293;-65
2022/12/14 06:16:16;;;;;;;6.78;4.05;;;;;;;-3.18;83.82;99804.72;5005373;28;20026;-65
2022/12/14 06:18:44;;;;;;;8.30;3.55;;;;;;;-3.14;83.40;99803.09;5000304;28;20139;-65
2022/12/14 06:21:10;;;;;;;13.95;5.53;;;;;;;-3.07;82.81;99800.88;5011158;28;20036;-65
2022/12/14 06:23:35;;;;;;;6.30;3.83;;;;;;;-3.22;82.61;99798.47;5017825;28;20026;-65
2022/12/14 06:26:01;;;;;;;4.47;3.50;;;;;;;-3.29;83.37;99790.16;4988266;28;20069;-65
2022/12/14 06:28:26;;;;;;;5.00;4.35;;;;;;;-3.18;83.07;99792.34;5009455;28;20041;-66
2022/12/14 06:30:52;;;;;;;7.47;3.83;;;;;;;-3.18;83.10;99794.19;4998004;28;20104;-66
2022/12/14 06:33:17;;;;;;;10.52;3.10;;;;;;;-3.22;83.06;99801.09;5009260;28;20048;-66
2022/12/14 06:35:44;;;;;;;6.55;3.83;;;;;;;-3.25;83.00;99791.91;5004859;28;20033;-66
2022/12/14 06:38:11;;;;;;;7.85;4.00;;;;;;;-3.18;83.00;99791.56;5021572;28;20041;-66
2022/12/14 06:40:37;;;;;;;10.75;3.92;;;;;;;-3.21;83.23;99789.47;5007397;28;20026;-65
2022/12/14 06:43:03;;;;;;;7.03;3.03;;;;;;;-3.27;82.79;99794.03;5003244;28;20408;-66
2022/12/14 06:45:29;;;;;;;2.35;2.15;;;;;;;-3.38;82.98;99790.00;5007318;28;20029;-66
2022/12/14 06:47:54;;;;;;;4.00;3.47;;;;;;;-3.38;83.01;99786.56;5007038;28;20508;-66
2022/12/14 06:50:21;;;;;;;10.90;3.78;;;;;;;-3.46;82.93;99787.22;4999407;28;20101;-66
2022/12/14 06:52:50;;;;;;;5.68;3.75;;;;;;;-3.47;83.29;99793.53;5005485;28;20041;-65
2022/12/14 06:55:16;;;;;;;9.68;3.55;;;;;;;-3.48;83.23;99797.25;5002767;28;20025;-66
2022/12/14 06:57:41;;;;;;;10.45;4.10;;;;;;;-3.60;83.10;99791.63;5007803;28;20143;-66
2022/12/14 07:00:11;;;;;;;6.53;3.42;;;;;;;-3.66;83.24;99801.44;5005618;28;20422;-65
2022/12/14 07:02:37;;;;;;;2.83;2.63;;;;;;;-3.69;83.29;99800.13;4994658;28;20261;-66
2022/12/14 07:05:03;;;;;;;6.23;3.93;;;;;;;-3.73;83.03;99796.50;4998684;28;20045;-64
2022/12/14 07:07:31;;;;;;;6.85;3.78;;;;;;;-3.85;83.45;99788.22;4995406;28;20038;-64
2022/12/14 07:09:57;;;;;;;4.55;3.28;;;;;;;-3.83;83.37;99799.25;4999382;28;20499;-65
2022/12/14 07:12:22;;;;;;;4.97;3.03;;;;;;;-3.80;82.89;99785.56;4996795;28;20045;-67
2022/12/14 07:14:48;;;;;;;4.93;2.65;;;;;;;-3.78;83.07;99786.06;4997014;28;20569;-66
2022/12/14 07:17:13;;;;;;;5.53;4.05;;;;;;;-3.80;82.98;99787.41;5002005;28;20104;-64
2022/12/14 07:19:38;;;;;;;4.72;4.00;;;;;;;-3.77;83.07;99784.19;4991275;28;20503;-66
2022/12/14 07:22:04;;;;;;;4.00;3.65;;;;;;;-3.83;83.71;99780.84;4986765;28;20033;-66
2022/12/14 07:24:30;;;;;;;6.53;5.40;;;;;;;-3.81;83.16;99777.94;4997069;28;20439;-65
2022/12/14 07:26:55;;;;;;;4.28;3.88;;;;;;;-3.90;83.11;99780.41;4999763;28;20461;-66
2022/12/14 07:29:21;;;;;;;7.57;3.97;;;;;;;-3.79;83.43;99776.59;5001610;28;20029;-66
2022/12/14 07:31:46;;;;;;;6.65;4.07;;;;;;;-3.69;83.03;99770.41;5002865;28;20054;-65
2022/12/14 07:34:12;;;;;;;8.37;4.83;;;;;;;-3.74;82.61;99776.56;5004147;28;20044;-65
2022/12/14 07:36:38;;;;;;;4.47;3.42;;;;;;;-3.76;82.38;99762.13;5003635;28;20123;-65
2022/12/14 07:39:04;;;;;;;7.80;3.63;;;;;;;-3.80;81.98;99767.16;5001844;28;20438;-66
2022/12/14 07:41:29;;;;;;;8.53;3.50;;;;;;;-3.79;82.58;99768.72;5003907;28;20508;-66
2022/12/14 07:43:56;;;;;;;6.13;4.00;;;;;;;-3.87;81.95;99779.84;5000373;28;20037;-65
2022/12/14 07:46:23;;;;;;;10.57;4.57;;;;;;;-3.96;82.63;99768.41;4994804;28;20038;-66
2022/12/14 07:48:54;;;;;;;7.23;3.93;;;;;;;-3.89;82.35;99781.97;5001801;28;20072;-66
2022/12/14 07:51:22;;;;;;;9.13;3.25;;;;;;;-3.88;82.69;99767.00;5012376;28;20036;-65
2022/12/14 07:53:49;;;;;;;13.03;4.57;;;;;;;-3.92;82.62;99774.66;4999677;28;20077;-66
2022/12/14 07:56:21;;;;;;;11.43;3.13;;;;;;;-3.92;82.61;99772.03;5004288;28;20030;-66
2022/12/14 07:58:47;;;;;;;5.73;4.03;;;;;;;-3.92;82.57;99773.88;4998621;28;20645;-66
2022/12/14 08:01:22;;;;;;;10.63;4.47;;;;;;;-3.86;82.61;99770.91;4985456;28;20022;-65
2022/12/14 08:03:50;;;;;;;5.13;3.40;;;;;;;-3.88;82.79;99765.16;5008977;28;20403;-66
2022/12/14 08:06:17;;;;;;;7.07;3.70;;;;;;;-3.90;82.90;99762.03;5009014;28;20103;-66
2022/12/14 08:08:43;;;;;;;5.32;2.63;;;;;;;-3.82;83.22;99761.41;5005144;28;20049;-66
2022/12/14 08:11:09;;;;;;;11.40;4.22;;;;;;;-3.81;83.16;99757.69;5011900;28;20026;-66
2022/12/14 08:13:37;;;;;;;3.13;2.57;;;;;;;-3.78;83.02;99759.78;4994742;28;20037;-64
2022/12/14 08:16:09;;;;;;;9.00;5.10;;;;;;;-3.74;82.70;99760.78;5013594;28;20513;-67
2022/12/14 08:18:34;;;;;;;5.20;3.27;;;;;;;-3.91;83.09;99754.41;5010995;28;20037;-66
2022/12/14 08:21:04;;;;;;;6.73;3.53;;;;;;;-3.87;83.76;99752.78;5007665;28;20040;-66
2022/12/14 08:23:30;;;;;;;6.93;3.65;;;;;;;-3.89;83.71;99757.56;5007882;28;20038;-64
2022/12/14 08:25:58;;;;;;;4.30;3.77;;;;;;;-3.79;83.87;99752.16;5008776;28;20049;-65
2022/12/14 08:28:24;;;;;;;5.10;2.73;;;;;;;-3.64;83.71;99746.72;5005321;28;20036;-65
2022/12/14 08:30:50;;;;;;;5.30;3.33;;;;;;;-3.73;83.27;99743.91;5007333;28;20036;-66
2022/12/14 08:33:17;;;;;;;7.80;3.40;;;;;;;-3.71;83.79;99739.16;5009429;28;20204;-66
2022/12/14 08:35:42;;;;;;;3.97;2.33;;;;;;;-3.58;83.47;99750.81;5012236;28;20040;-67
2022/12/14 08:38:08;;;;;;;7.03;4.05;;;;;;;-3.50;83.36;99746.78;5008589;28;20029;-66
2022/12/14 08:40:35;;;;;;;3.08;2.80;;;;;;;-3.37;83.38;99740.81;5007732;28;20575;-65
2022/12/14 08:43:01;;;;;;;7.73;4.40;;;;;;;-3.23;82.82;99749.53;5000170;28;20037;-65
2022/12/14 08:45:26;;;;;;;3.47;3.07;;;;;;;-3.20;82.93;99755.00;5015047;28;20167;-65
2022/12/14 08:47:55;;;;;;;6.03;3.55;;;;;;;-3.21;82.90;99739.50;5004233;28;20030;-66
2022/12/14 08:50:21;;;;;;;17.33;4.43;;;;;;;-3.18;82.92;99738.94;5008304;28;20033;-66
2022/12/14 08:52:47;;;;;;;7.13;3.28;;;;;;;-3.06;83.03;99737.41;5009334;28;20120;-66
2022/12/14 08:55:12;;;;;;;7.00;4.95;;;;;;;-3.00;82.61;99732.88;5015850;28;20044;-66
2022/12/14 08:57:38;;;;;;;4.60;3.70;;;;;;;-2.99;82.84;99729.16;5008998;28;20046;-66
2022/12/14 09:00:04;;;;;;;5.95;3.40;;;;;;;-2.82;82.55;99732.00;5010783;28;20499;-66
2022/12/14 09:02:29;;;;;;;10.20;4.15;;;;;;;-2.86;82.58;99731.03;5013152;28;20037;-66
2022/12/14 09:04:54;;;;;;;9.60;4.90;;;;;;;-2.54;82.27;99732.84;5010387;28;20038;-65
2022/12/14 09:07:20;;;;;;;4.88;3.97;;;;;;;-2.28;82.07;99733.94;5003995;28;20044;-66
2022/12/14 09:09:45;;;;;;;4.20;2.88;;;;;;;-2.21;81.16;99731.72;5010027;28;20025;-65
2022/12/14 09:12:11;;;;;;;3.55;3.25;;;;;;;-2.10;81.33;99739.13;5011716;28;20553;-65
2022/12/14 09:14:36;;;;;;;6.72;4.50;;;;;;;-2.09;79.88;99730.13;5010522;28;20038;-65
2022/12/14 09:17:02;;;;;;;3.75;2.65;;;;;;;-2.08;79.82;99733.56;5006872;28;20044;-65
2022/12/14 09:19:28;;;;;;;23.42;3.70;;;;;;;-2.11;79.35;99724.38;5005056;28;21304;-66
2022/12/14 09:21:54;;;;;;;5.93;4.22;;;;;;;-1.90;79.98;99725.50;5010094;28;20491;-66
2022/12/14 09:24:20;;;;;;;5.93;2.97;;;;;;;-1.88;79.29;99725.25;5007241;28;20069;-64
2022/12/14 09:26:46;;;;;;;6.28;3.42;;;;;;;-1.73;79.04;99711.72;5008381;28;20124;-66
2022/12/14 09:29:13;;;;;;;8.00;4.47;;;;;;;-1.57;79.04;99725.38;5012077;28;20788;-66
2022/12/14 09:31:39;;;;;;;8.73;4.43;;;;;;;-1.33;78.56;99712.66;5003189;28;20470;-66
2022/12/14 09:34:05;;;;;;;2.83;2.13;;;;;;;-1.30;77.99;99715.50;5012514;28;20491;-65
2022/12/14 09:36:31;;;;;;;12.05;5.05;;;;;;;-1.02;77.66;99726.72;5007382;28;21348;-65
2022/12/14 09:38:58;;;;;;;6.50;4.40;;;;;;;-0.86;77.30;99724.47;4998300;28;20550;-66
2022/12/14 09:41:33;;;;;;;5.72;4.03;;;;;;;-0.68;76.03;99726.16;5007393;28;20030;-66
2022/12/14 09:44:22;;;;;;;3.92;3.22;;;;;;;-0.61;75.88;99718.56;5009251;28;20073;-67
2022/12/14 09:47:00;;;;;;;9.43;3.45;;;;;;;-0.55;75.17;99720.78;4986425;28;20074;-66
2022/12/14 09:49:39;;;;;;;12.15;4.05;;;;;;;-0.66;74.89;99708.13;5025035;28;20272;-66
2022/12/14 09:52:14;;;;;;;8.50;4.35;;;;;;;-0.52;75.59;99716.75;5007422;28;21036;-66
2022/12/14 09:54:43;;;;;;;7.78;3.90;;;;;;;-0.68;74.10;99710.28;5004679;28;20038;-66
2022/12/14 09:57:36;;;;;;;4.30;3.75;;;;;;;-0.87;73.86;99705.19;5009268;28;20029;-65
2022/12/14 10:00:03;;;;;;;5.40;3.70;;;;;;;-0.86;75.38;99696.22;5008790;28;20046;-66
2022/12/14 10:03:15;;;;;;;6.07;3.60;;;;;;;-0.44;74.70;99698.28;5006023;28;20033;-66
2022/12/14 10:06:00;;;;;;;7.25;4.25;;;;;;;-0.41;72.27;99689.75;5008396;28;20328;-66
2022/12/14 10:08:34;;;;;;;8.10;4.43;;;;;;;-0.48;71.33;99686.75;5004674;28;20033;-65
2022/12/14 10:11:17;;;;;;;6.55;4.05;;;;;;;-0.24;71.44;99686.34;5009101;28;20061;-66
2022/12/14 10:13:55;;;;;;;5.75;3.55;;;;;;;-0.15;70.66;99690.59;5016859;28;20113;-65
2022/12/14 10:16:42;;;;;;;7.63;3.90;;;;;;;-0.16;70.64;99686.41;5013689;28;20041;-65
2022/12/14 10:19:26;;;;;;;13.32;5.10;;;;;;;-0.16;69.18;99694.34;5002498;28;20410;-66
2022/12/14 10:21:57;;;;;;;4.07;2.92;;;;;;;-0.10;69.68;99685.13;5009102;28;20037;-66
2022/12/14 10:24:30;;;;;;;4.07;2.17;;;;;;;0.12;69.64;99680.84;5007613;28;20425;-66
2022/12/14 10:26:56;;;;;;;5.72;3.10;;;;;;;0.09;68.60;99681.44;5008093;28;20049;-66
2022/12/14 10:29:26;;;;;;;5.20;3.38;;;;;;;0.04;68.86;99681.59;5011923;28;20773;-66
2022/12/14 10:31:59;;;;;;;6.70;2.88;;;;;;;0.20;69.11;99674.75;5005882;28;20038;-66
2022/12/14 10:34:28;;;;;;;5.53;3.22;;;;;;;0.19;68.33;99670.56;5005758;28;20049;-66
2022/12/14 10:37:19;;;;;;;10.55;3.72;;;;;;;0.32;68.72;99669.63;5007698;28;20040;-66
2022/12/14 10:39:53;;;;;;;8.10;3.17;;;;;;;0.37;69.01;99666.84;5003040;28;20053;-66
2022/12/14 10:42:41;;;;;;;8.82;4.32;;;;;;;0.41;69.54;99667.75;5007682;28;20026;-66
2022/12/14 10:45:28;;;;;;;6.60;2.75;;;;;;;0.40;69.13;99659.06;5005782;28;20040;-66
2022/12/14 10:48:18;;;;;;;10.73;4.40;;;;;;;0.54;68.42;99664.97;5002152;28;20096;-67
2022/12/14 10:50:56;;;;;;;7.07;3.65;;;;;;;0.38;68.26;99660.47;4994784;28;20042;-66
2022/12/14 10:53:29;;;;;;;9.35;4.60;;;;;;;0.29;67.72;99654.41;5002421;28;20041;-66
2022/12/14 10:56:01;;;;;;;12.05;4.70;;;;;;;0.23;67.10;99656.41;5004086;28;20050;-66
2022/12/14 10:58:27;;;;;;;6.43;3.47;;;;;;;0.38;67.38;99655.16;5005289;28;20084;-66
2022/12/14 11:00:53;;;;;;;4.55;2.75;;;;;;;0.10;67.74;99646.75;5007954;28;20041;-66
2022/12/14 11:03:19;;;;;;;5.13;3.35;;;;;;;0.27;67.89;99651.28;5005197;28;20037;-66
2022/12/14 11:06:09;;;;;;;5.38;3.20;;;;;;;0.40;67.00;99653.78;5007895;28;20034;-66
2022/12/14 11:08:42;;;;;;;4.53;3.28;;;;;;;0.41;67.44;99641.28;5001235;28;20070;-66
2022/12/14 11:11:14;;;;;;;8.40;3.58;;;;;;;0.55;67.02;99652.50;4999520;28;20113;-66
2022/12/14 11:13:50;;;;;;;10.55;3.97;;;;;;;0.45;66.81;99652.81;4998412;28;20055;-66
2022/12/14 11:16:45;;;;;;;7.93;3.83;;;;;;;0.50;67.30;99644.72;4998084;28;20038;-66
2022/12/14 11:19:22;;;;;;;6.78;3.38;;;;;;;0.28;68.11;99647.53;4986173;28;20423;-66
2022/12/14 11:21:49;;;;;;;3.70;3.15;;;;;;;0.48;67.65;99642.41;4993921;28;20038;-66
2022/12/14 11:24:24;;;;;;;4.63;2.72;;;;;;;0.62;68.24;99643.00;5009391;28;20041;-66
2022/12/14 11:26:55;;;;;;;13.00;3.30;;;;;;;0.65;68.33;99636.28;5009945;28;20038;-66
2022/12/14 11:29:23;;;;;;;;;;;;;;;0.67;67.16;99634.13;5024014;28;20029;-66
2022/12/14 11:31:52;;;;;;;9.65;2.45;;;;;;;0.74;67.12;99637.06;5010234;28;20270;-66
2022/12/14 11:34:41;;;;;;;8.23;3.28;;;;;;;0.48;66.08;99634.47;5004796;28;20564;-66
2022/12/14 11:37:20;;;;;;;7.78;3.38;;;;;;;0.23;64.35;99629.94;5010230;28;20033;-66
2022/12/14 11:39:50;;;;;;;7.25;2.95;;;;;;;0.41;64.98;99641.28;5009452;28;20034;-66
2022/12/14 11:42:18;;;;;;;3.90;1.98;;;;;;;0.34;65.04;99641.00;5007056;28;20096;-68
2022/12/14 11:44:45;;;;;;;3.83;3.13;;;;;;;0.34;64.79;99630.41;5012479;28;20103;-66
2022/12/14 11:47:28;;;;;;;8.70;4.30;;;;;;;0.31;64.61;99631.03;5004932;28;20482;-66
2022/12/14 11:49:56;;;;;;;6.97;3.15;;;;;;;0.48;64.57;99629.16;5006022;28;20043;-66
2022/12/14 11:52:41;;;;;;;6.47;3.17;;;;;;;0.51;65.04;99622.44;5006175;28;20026;-67
2022/12/14 11:55:13;;;;;;;5.90;2.78;;;;;;;0.68;64.38;99627.72;5006667;28;20763;-66
2022/12/14 11:57:51;;;;;;;4.95;2.97;;;;;;;0.75;63.81;99626.16;4999626;28;20341;-66
2022/12/14 12:00:25;;;;;;;5.03;3.38;;;;;;;0.80;63.76;99627.84;5002484;28;20120;-66
2022/12/14 12:02:58;;;;;;;5.28;2.67;;;;;;;0.78;64.19;99625.53;5002524;28;20194;-66